Time;durP1;ratioP1;P1;durP2;ratioP2;P2;SDS_P1;SDS_P2;PMS_P1;PMS_P2;Temp;Humidity;BMP_temperature;BMP_pressure;BME280_temperature;BME280_humidity;BME280_pressure;Samples;Min_cycle;Max_cycle;Signal;HPM_P1;HPM_P2
2023/04/29 00:00:29;;;;;;;2.57;1.97;;;12.70;99.90;;;;;;2095888;28;20219;-68
2023/04/29 00:01:30;;;;;;;2.45;2.00;;;12.70;99.90;;;;;;2096262;28;20860;-68
2023/04/29 00:02:31;;;;;;;3.20;1.63;;;12.70;99.90;;;;;;2092599;28;20231;-69
2023/04/29 00:03:32;;;;;;;7.78;3.17;;;12.70;99.90;;;;;;2096151;28;20231;-69
2023/04/29 00:04:33;;;;;;;2.07;1.83;;;12.70;99.90;;;;;;2091770;28;20229;-69
2023/04/29 00:05:37;;;;;;;2.00;1.80;;;12.80;99.90;;;;;;2082343;28;20232;-68
2023/04/29 00:06:37;;;;;;;1.92;1.52;;;12.70;99.90;;;;;;2086141;28;20224;-68
2023/04/29 00:07:38;;;;;;;2.27;2.03;;;12.60;99.90;;;;;;2083964;28;20232;-68
2023/04/29 00:08:39;;;;;;;4.87;2.30;;;12.60;99.90;;;;;;2090682;28;20314;-68
2023/04/29 00:09:41;;;;;;;3.25;2.00;;;12.60;99.90;;;;;;2084246;28;20276;-67
2023/04/29 00:10:42;;;;;;;3.38;1.85;;;12.50;99.90;;;;;;2087839;28;20575;-69
2023/04/29 00:11:42;;;;;;;2.43;2.00;;;12.50;99.90;;;;;;2083693;28;20274;-68
2023/04/29 00:12:43;;;;;;;2.30;2.00;;;12.40;99.90;;;;;;2074705;28;20307;-68
2023/04/29 00:13:45;;;;;;;3.43;2.63;;;12.30;99.90;;;;;;2104220;28;20700;-70
2023/04/29 00:14:46;;;;;;;3.45;1.92;;;12.30;99.90;;;;;;2099499;28;20227;-68
2023/04/29 00:15:46;;;;;;;2.37;1.90;;;12.40;99.90;;;;;;2091043;28;20593;-67
2023/04/29 00:16:48;;;;;;;3.70;2.17;;;12.30;99.90;;;;;;2091925;28;20227;-70
2023/04/29 00:17:49;;;;;;;2.50;2.10;;;12.30;99.90;;;;;;2088654;28;20542;-67
2023/04/29 00:18:50;;;;;;;3.25;2.05;;;12.30;99.90;;;;;;2092120;28;20227;-68
2023/04/29 00:19:51;;;;;;;2.10;1.90;;;12.30;99.90;;;;;;2087554;28;20232;-70
2023/04/29 00:20:52;;;;;;;2.97;2.10;;;12.30;99.90;;;;;;2079434;28;20304;-67
2023/04/29 00:21:53;;;;;;;2.13;1.93;;;12.30;99.90;;;;;;2081492;28;20257;-67
2023/04/29 00:22:54;;;;;;;2.38;2.08;;;12.40;99.90;;;;;;2092432;28;20231;-70
2023/04/29 00:23:55;;;;;;;2.67;2.00;;;12.40;99.90;;;;;;2091724;28;20235;-68
2023/04/29 00:24:57;;;;;;;2.57;2.20;;;12.50;99.90;;;;;;2092843;28;20262;-67
2023/04/29 00:25:57;;;;;;;2.33;2.00;;;12.50;99.90;;;;;;2092122;28;20223;-66
2023/04/29 00:26:58;;;;;;;2.33;2.13;;;12.40;99.90;;;;;;2087331;28;20247;-68
2023/04/29 00:28:00;;;;;;;2.65;2.00;;;12.40;99.90;;;;;;2095676;28;20229;-67
2023/04/29 00:29:01;;;;;;;5.20;2.53;;;12.40;99.90;;;;;;2090227;28;20227;-68
2023/04/29 00:30:02;;;;;;;3.93;2.53;;;12.40;99.90;;;;;;2091543;28;20184;-68
2023/04/29 00:31:03;;;;;;;2.53;2.10;;;12.40;99.90;;;;;;2088030;28;20697;-67
2023/04/29 00:32:04;;;;;;;2.50;2.20;;;12.30;99.90;;;;;;2089674;28;20205;-67
2023/04/29 00:33:05;;;;;;;3.07;2.27;;;12.20;99.90;;;;;;2092616;28;20214;-68
2023/04/29 00:34:06;;;;;;;3.67;2.10;;;12.20;99.90;;;;;;2091905;28;20188;-68
2023/04/29 00:35:08;;;;;;;2.57;2.20;;;12.20;99.90;;;;;;2083974;28;20638;-70
2023/04/29 00:36:10;;;;;;;2.88;1.70;;;12.30;99.90;;;;;;2075897;28;20196;-67
2023/04/29 00:37:11;;;;;;;2.63;2.20;;;12.30;99.90;;;;;;2067496;28;20178;-68
2023/04/29 00:38:12;;;;;;;5.53;2.30;;;12.30;99.90;;;;;;2065587;28;20194;-67
2023/04/29 00:39:13;;;;;;;3.33;2.50;;;12.30;99.90;;;;;;2093041;28;20234;-67
2023/04/29 00:40:18;;;;;;;4.73;2.30;;;12.40;99.90;;;;;;2093990;28;20266;-69
2023/04/29 00:41:20;;;;;;;3.63;2.22;;;12.40;99.90;;;;;;2091762;28;20553;-68
2023/04/29 00:42:22;;;;;;;2.20;2.00;;;12.30;99.90;;;;;;2075355;28;20679;-68
2023/04/29 00:43:23;;;;;;;3.35;1.92;;;12.30;99.90;;;;;;2067591;28;20322;-68
2023/04/29 00:44:25;;;;;;;2.97;2.10;;;12.40;99.90;;;;;;2091985;28;20327;-70
2023/04/29 00:45:26;;;;;;;2.33;2.13;;;12.40;99.90;;;;;;2091921;28;20217;-68
2023/04/29 00:46:27;;;;;;;4.00;2.20;;;12.30;99.90;;;;;;2083026;28;20643;-70
2023/04/29 00:47:29;;;;;;;2.27;2.07;;;12.30;99.90;;;;;;2090948;28;20270;-68
2023/04/29 00:48:30;;;;;;;5.45;2.53;;;12.40;99.90;;;;;;2092233;28;20232;-69
2023/04/29 00:49:31;;;;;;;4.00;2.10;;;12.40;99.90;;;;;;2092682;28;20329;-68
2023/04/29 00:50:33;;;;;;;2.20;2.00;;;12.40;99.90;;;;;;2092810;28;20231;-68
2023/04/29 00:51:35;;;;;;;2.38;1.90;;;12.30;99.90;;;;;;2092384;28;20228;-68
2023/04/29 00:52:38;;;;;;;3.78;2.13;;;12.30;99.90;;;;;;2086035;28;20231;-68
2023/04/29 00:53:39;;;;;;;3.40;2.50;;;12.20;99.90;;;;;;2086095;28;20242;-68
2023/04/29 00:54:42;;;;;;;2.50;2.20;;;12.30;99.90;;;;;;2087434;28;20232;-68
2023/04/29 00:55:47;;;;;;;5.90;2.05;;;12.30;99.90;;;;;;2095200;28;20239;-69
2023/04/29 00:56:51;;;;;;;2.50;1.88;;;12.20;99.90;;;;;;2087902;28;20243;-69
2023/04/29 00:57:52;;;;;;;5.38;2.40;;;12.20;99.90;;;;;;2079829;28;20236;-69
2023/04/29 00:58:53;;;;;;;2.40;2.17;;;12.20;99.90;;;;;;2092547;28;20222;-69
2023/04/29 00:59:57;;;;;;;2.30;2.00;;;12.20;99.90;;;;;;2095675;28;20231;-69
2023/04/29 01:01:00;;;;;;;3.13;2.10;;;12.20;99.90;;;;;;2094771;28;20233;-69
2023/04/29 01:02:03;;;;;;;2.65;2.30;;;12.10;99.90;;;;;;2094190;28;20223;-69
2023/04/29 01:03:04;;;;;;;2.88;2.22;;;12.20;99.90;;;;;;2094389;28;20183;-69
2023/04/29 01:04:06;;;;;;;3.33;2.30;;;12.20;99.90;;;;;;2086998;28;20548;-67
2023/04/29 01:05:09;;;;;;;3.25;2.35;;;12.20;99.90;;;;;;2086882;28;20200;-69
2023/04/29 01:06:48;;;;;;;3.17;2.30;;;12.20;99.90;;;;;;2082030;28;20203;-67
2023/04/29 01:08:16;;;;;;;2.22;2.03;;;12.20;99.90;;;;;;2087575;28;20278;-68
2023/04/29 01:09:47;;;;;;;4.60;3.10;;;12.20;99.90;;;;;;2086497;28;20643;-67
2023/04/29 01:11:05;;;;;;;2.40;2.20;;;12.10;99.90;;;;;;2092659;28;21054;-68
2023/04/29 01:12:42;;;;;;;2.72;1.95;;;12.00;99.90;;;;;;2085900;28;20257;-68
2023/04/29 01:13:55;;;;;;;2.78;2.53;;;12.00;99.90;;;;;;2085701;28;20720;-68
2023/04/29 01:15:41;;;;;;;2.47;1.98;;;12.00;99.90;;;;;;2086105;28;20302;-69
2023/04/29 01:16:51;;;;;;;4.18;2.30;;;11.90;99.90;;;;;;2047740;28;20238;-67
2023/04/29 01:18:07;;;;;;;2.78;2.33;;;12.00;99.90;;;;;;2081582;28;20219;-68
2023/04/29 01:19:46;;;;;;;2.25;2.00;;;11.90;99.90;;;;;;2078093;28;20663;-69
2023/04/29 01:20:47;;;;;;;3.55;1.90;;;11.90;99.90;;;;;;2082332;28;20236;-68
2023/04/29 01:21:49;;;;;;;4.10;2.30;;;11.90;99.90;;;;;;2070644;28;20728;-67
2023/04/29 01:22:50;;;;;;;3.78;2.30;;;11.90;99.90;;;;;;2079388;28;20239;-69
2023/04/29 01:23:55;;;;;;;3.37;2.60;;;11.90;99.90;;;;;;2087382;28;20234;-68
2023/04/29 01:24:55;;;;;;;3.03;2.17;;;11.90;99.90;;;;;;2087448;28;20239;-67
2023/04/29 01:25:57;;;;;;;3.47;2.67;;;11.90;99.90;;;;;;2091524;28;20229;-68
2023/04/29 01:27:27;;;;;;;3.45;2.30;;;11.90;99.90;;;;;;2091816;28;20717;-69
2023/04/29 01:28:53;;;;;;;3.85;2.38;;;11.90;99.90;;;;;;2093424;28;20223;-67
2023/04/29 01:30:31;;;;;;;3.88;3.00;;;11.80;99.90;;;;;;2096133;28;20268;-67
2023/04/29 01:31:48;;;;;;;3.67;2.85;;;11.80;99.90;;;;;;2092656;28;20230;-67
2023/04/29 01:33:14;;;;;;;3.45;2.30;;;11.80;99.90;;;;;;2086867;28;20277;-67
2023/04/29 01:35:05;;;;;;;4.03;2.38;;;11.70;99.90;;;;;;2086523;28;20216;-68
2023/04/29 01:36:30;;;;;;;2.80;2.50;;;11.70;99.90;;;;;;2066015;28;20312;-69
2023/04/29 01:37:38;;;;;;;2.85;2.20;;;11.70;99.90;;;;;;2090577;28;20305;-69
2023/04/29 01:38:51;;;;;;;3.78;2.30;;;11.60;99.90;;;;;;2099640;28;20233;-68
2023/04/29 01:40:15;;;;;;;4.72;3.15;;;11.60;99.90;;;;;;2087387;28;20231;-68
2023/04/29 01:41:45;;;;;;;2.97;2.60;;;11.70;99.90;;;;;;2093721;28;20221;-67
2023/04/29 01:43:00;;;;;;;2.95;2.40;;;11.60;99.90;;;;;;2086535;28;20277;-70
2023/04/29 01:44:03;;;;;;;3.40;2.33;;;11.60;99.90;;;;;;2079935;28;20299;-69
2023/04/29 01:45:09;;;;;;;3.58;2.47;;;11.70;99.90;;;;;;2086049;28;20180;-68
2023/04/29 01:46:15;;;;;;;4.60;2.67;;;11.60;99.90;;;;;;2087582;28;20192;-68
2023/04/29 01:47:17;;;;;;;3.40;2.78;;;11.60;99.90;;;;;;2078986;28;20197;-67
2023/04/29 01:48:20;;;;;;;6.78;3.10;;;11.60;99.90;;;;;;2078739;28;20251;-67
2023/04/29 01:49:26;;;;;;;5.10;3.40;;;11.60;99.90;;;;;;2094435;28;20232;-68
2023/04/29 01:50:27;;;;;;;6.32;2.95;;;11.60;99.90;;;;;;2095523;28;20729;-68
2023/04/29 01:51:28;;;;;;;3.10;2.50;;;11.60;99.90;;;;;;2091535;28;20302;-67
2023/04/29 01:52:31;;;;;;;23.60;3.58;;;11.60;99.90;;;;;;2095606;28;20231;-68
2023/04/29 01:53:32;;;;;;;45.10;5.63;;;11.60;99.90;;;;;;2085832;28;20349;-67
2023/04/29 01:54:35;;;;;;;12.65;3.15;;;11.50;99.90;;;;;;2093399;28;20348;-69
2023/04/29 01:55:36;;;;;;;33.90;4.30;;;11.60;99.90;;;;;;2082274;28;20231;-67
2023/04/29 01:56:36;;;;;;;25.20;4.50;;;11.60;99.90;;;;;;2090715;28;20269;-68
2023/04/29 01:57:37;;;;;;;27.77;4.23;;;11.60;99.90;;;;;;2094966;28;20284;-67
2023/04/29 01:58:38;;;;;;;61.50;6.73;;;11.60;99.90;;;;;;2091982;28;20238;-68
2023/04/29 01:59:39;;;;;;;49.63;6.47;;;12.50;99.90;;;;;;2095133;28;20301;-69
2023/04/29 02:00:40;;;;;;;39.17;6.57;;;11.60;99.90;;;;;;2086531;28;20235;-69
2023/04/29 02:01:41;;;;;;;6.28;3.33;;;11.60;99.90;;;;;;2094362;28;20235;-69
2023/04/29 02:02:42;;;;;;;24.48;4.45;;;11.60;99.90;;;;;;2094027;28;20260;-68
2023/04/29 02:03:43;;;;;;;13.97;4.00;;;11.60;99.90;;;;;;2095442;28;20235;-69
2023/04/29 02:04:44;;;;;;;5.73;2.87;;;11.60;99.90;;;;;;2085381;28;20232;-69
2023/04/29 02:05:45;;;;;;;8.02;3.70;;;11.60;99.90;;;;;;2090961;28;20577;-69
2023/04/29 02:06:47;;;;;;;6.37;3.03;;;11.70;99.90;;;;;;2095583;28;20234;-68
2023/04/29 02:07:48;;;;;;;4.32;3.10;;;11.60;99.90;;;;;;2087734;28;20235;-68
2023/04/29 02:08:48;;;;;;;5.03;3.30;;;11.60;99.90;;;;;;2091619;28;20231;-67
2023/04/29 02:09:52;;;;;;;6.27;3.20;;;11.70;99.90;;;;;;2087295;28;20223;-68
2023/04/29 02:10:59;;;;;;;5.85;3.00;;;11.60;99.90;;;;;;2087024;28;20581;-68
2023/04/29 02:12:02;;;;;;;5.53;2.72;;;11.60;99.90;;;;;;2091316;28;20230;-68
2023/04/29 02:13:04;;;;;;;4.95;2.80;;;11.60;99.90;;;;;;2091058;28;20795;-68
2023/04/29 02:14:05;;;;;;;7.50;3.47;;;11.60;99.90;;;;;;2095098;28;20203;-69
2023/04/29 02:15:08;;;;;;;8.97;2.70;;;11.60;99.90;;;;;;2093884;28;20184;-68
2023/04/29 02:16:11;;;;;;;5.13;2.80;;;11.50;99.90;;;;;;2092824;28;20432;-67
2023/04/29 02:17:12;;;;;;;4.63;2.63;;;11.50;99.90;;;;;;2080184;28;20201;-67
2023/04/29 02:18:14;;;;;;;3.88;2.53;;;11.50;99.90;;;;;;2080454;28;20189;-67
2023/04/29 02:19:15;;;;;;;2.97;2.35;;;11.50;99.90;;;;;;2088591;28;20204;-67
2023/04/29 02:20:17;;;;;;;5.67;2.40;;;11.50;99.90;;;;;;2092531;28;20183;-68
2023/04/29 02:21:19;;;;;;;3.95;2.35;;;11.50;99.90;;;;;;2091760;28;20195;-67
2023/04/29 02:22:20;;;;;;;2.90;2.47;;;11.50;99.90;;;;;;2088159;28;20184;-67
2023/04/29 02:23:21;;;;;;;2.78;2.33;;;11.50;99.90;;;;;;2092057;28;20250;-68
2023/04/29 02:24:23;;;;;;;4.13;2.77;;;11.50;99.90;;;;;;2084667;28;20573;-67
2023/04/29 02:25:24;;;;;;;4.30;2.70;;;11.50;99.90;;;;;;2088795;28;20606;-67
2023/04/29 02:26:25;;;;;;;2.53;2.33;;;11.50;99.90;;;;;;2092546;28;20235;-68
2023/04/29 02:27:26;;;;;;;5.53;2.40;;;11.50;99.90;;;;;;2093260;28;20224;-69
2023/04/29 02:28:27;;;;;;;2.43;2.10;;;11.50;99.90;;;;;;2096841;28;20228;-69
2023/04/29 02:29:29;;;;;;;2.40;2.07;;;11.40;99.90;;;;;;2091301;28;20235;-69
2023/04/29 02:30:30;;;;;;;3.15;2.45;;;11.40;99.90;;;;;;2094332;28;20224;-69
2023/04/29 02:31:31;;;;;;;2.50;2.30;;;11.40;99.90;;;;;;2092329;28;20841;-68
2023/04/29 02:32:32;;;;;;;2.78;1.85;;;11.40;99.90;;;;;;2088880;28;20231;-68
2023/04/29 02:33:33;;;;;;;3.57;2.07;;;11.40;99.90;;;;;;2086670;28;20641;-68
2023/04/29 02:34:34;;;;;;;3.88;2.90;;;11.40;99.90;;;;;;2091122;28;20231;-69
2023/04/29 02:35:35;;;;;;;3.55;2.10;;;11.40;99.90;;;;;;2097863;28;20223;-68
2023/04/29 02:36:36;;;;;;;2.00;1.80;;;11.30;99.90;;;;;;2093901;28;20328;-68
2023/04/29 02:37:38;;;;;;;4.87;2.60;;;11.30;99.90;;;;;;2094903;28;20693;-68
2023/04/29 02:38:40;;;;;;;2.95;1.90;;;11.30;99.90;;;;;;2082696;28;20229;-68
2023/04/29 02:39:41;;;;;;;3.40;2.65;;;11.30;99.90;;;;;;2086785;28;20232;-68
2023/04/29 02:40:45;;;;;;;3.37;2.40;;;11.30;99.90;;;;;;2094175;28;20239;-68
2023/04/29 02:41:46;;;;;;;5.05;3.33;;;11.20;99.90;;;;;;2096748;28;20223;-68
2023/04/29 02:42:47;;;;;;;3.17;2.53;;;11.20;99.90;;;;;;2098607;28;20353;-67
2023/04/29 02:43:49;;;;;;;3.47;3.00;;;11.20;99.90;;;;;;2096858;28;20599;-68
2023/04/29 02:44:50;;;;;;;3.05;2.30;;;11.30;99.90;;;;;;2089650;28;20241;-68
2023/04/29 02:45:51;;;;;;;3.10;2.63;;;11.20;99.90;;;;;;2093329;28;20220;-68
2023/04/29 02:46:51;;;;;;;3.10;2.60;;;11.20;99.90;;;;;;2093252;28;20260;-69
2023/04/29 02:47:52;;;;;;;2.73;2.50;;;11.20;99.90;;;;;;2087547;28;20231;-69
2023/04/29 02:48:53;;;;;;;2.10;1.90;;;11.20;99.90;;;;;;2092657;28;20889;-68
2023/04/29 02:49:54;;;;;;;2.58;2.38;;;11.20;99.90;;;;;;2089530;28;20599;-68
2023/04/29 02:50:55;;;;;;;3.73;2.37;;;11.10;99.90;;;;;;2091414;28;20227;-68
2023/04/29 02:51:57;;;;;;;2.33;2.13;;;11.20;99.90;;;;;;2076306;28;20229;-68
2023/04/29 02:52:58;;;;;;;3.28;2.85;;;11.10;99.90;;;;;;2076695;28;20374;-69
2023/04/29 02:53:59;;;;;;;6.03;3.10;;;11.20;99.90;;;;;;2093263;28;20236;-68
2023/04/29 02:55:01;;;;;;;3.90;3.00;;;11.10;99.90;;;;;;2092143;28;20260;-68
2023/04/29 02:56:02;;;;;;;3.80;3.05;;;11.20;99.90;;;;;;2093769;28;20184;-68
2023/04/29 02:57:02;;;;;;;4.40;2.70;;;11.10;99.90;;;;;;2092244;28;20180;-67
2023/04/29 02:58:03;;;;;;;5.07;3.00;;;11.10;99.90;;;;;;2084096;28;20188;-68
2023/04/29 02:59:05;;;;;;;2.90;2.60;;;11.00;99.90;;;;;;2093361;28;20668;-67
2023/04/29 03:00:07;;;;;;;2.67;2.10;;;11.00;99.90;;;;;;2084606;28;20234;-68
2023/04/29 03:01:08;;;;;;;2.95;2.65;;;11.00;99.90;;;;;;2086666;28;20299;-68
2023/04/29 03:02:09;;;;;;;2.43;2.00;;;10.90;99.90;;;;;;2092505;28;20187;-68
2023/04/29 03:03:10;;;;;;;3.10;2.60;;;10.90;99.90;;;;;;2083927;28;20663;-68
2023/04/29 03:04:12;;;;;;;2.63;2.30;;;11.00;99.90;;;;;;2097684;28;20240;-68
2023/04/29 03:05:13;;;;;;;2.38;2.17;;;10.90;99.90;;;;;;2089919;28;20295;-68
2023/04/29 03:06:15;;;;;;;4.00;1.93;;;11.00;99.90;;;;;;2092308;28;20196;-67
2023/04/29 03:07:16;;;;;;;3.05;2.58;;;10.90;99.90;;;;;;2096950;28;20188;-68
2023/04/29 03:08:18;;;;;;;4.40;2.70;;;11.00;99.90;;;;;;2084583;28;20192;-66
2023/04/29 03:09:20;;;;;;;3.45;2.40;;;11.00;99.90;;;;;;2084059;28;20608;-68
2023/04/29 03:10:21;;;;;;;5.45;3.20;;;11.00;99.90;;;;;;2092963;28;20401;-69
2023/04/29 03:11:23;;;;;;;4.27;3.07;;;11.00;99.90;;;;;;2094267;28;20223;-68
2023/04/29 03:12:25;;;;;;;3.38;2.75;;;11.00;99.90;;;;;;2090447;28;20378;-68
2023/04/29 03:13:26;;;;;;;3.42;2.42;;;11.00;99.90;;;;;;2088391;28;20239;-68
2023/04/29 03:14:26;;;;;;;3.87;2.60;;;11.00;99.90;;;;;;2080233;28;20240;-68
2023/04/29 03:15:28;;;;;;;3.07;2.33;;;10.90;99.90;;;;;;2087927;28;20259;-68
2023/04/29 03:16:30;;;;;;;5.75;3.72;;;10.90;99.90;;;;;;2088670;28;20231;-68
2023/04/29 03:17:31;;;;;;;4.72;3.25;;;10.90;99.90;;;;;;2089215;28;20247;-68
2023/04/29 03:18:32;;;;;;;6.47;4.38;;;11.00;99.90;;;;;;2087911;28;20231;-69
2023/04/29 03:19:32;;;;;;;4.13;3.23;;;11.00;99.90;;;;;;2071898;28;20234;-67
2023/04/29 03:20:33;;;;;;;5.88;3.72;;;10.80;99.90;;;;;;2085521;28;20262;-69
2023/04/29 03:21:34;;;;;;;5.53;3.30;;;10.80;99.90;;;;;;2096917;28;20223;-67
2023/04/29 03:22:35;;;;;;;6.00;4.10;;;10.90;99.90;;;;;;2095496;28;20306;-67
2023/04/29 03:23:38;;;;;;;6.30;3.80;;;10.90;99.90;;;;;;2093167;28;20255;-67
2023/04/29 03:24:39;;;;;;;6.68;3.65;;;10.90;99.90;;;;;;2096162;28;20310;-67
2023/04/29 03:25:40;;;;;;;3.83;3.40;;;10.90;99.90;;;;;;2088686;28;20231;-68
2023/04/29 03:26:42;;;;;;;4.82;3.50;;;11.00;99.90;;;;;;2087499;28;20223;-68
2023/04/29 03:27:44;;;;;;;4.80;3.92;;;11.00;99.90;;;;;;2092383;28;20258;-70
2023/04/29 03:28:45;;;;;;;4.95;3.60;;;11.00;99.90;;;;;;2096869;28;20314;-68
2023/04/29 03:29:46;;;;;;;4.50;3.87;;;11.00;99.90;;;;;;2090723;28;20239;-68
2023/04/29 03:30:47;;;;;;;6.17;3.10;;;11.00;99.90;;;;;;2087112;28;20239;-67
2023/04/29 03:31:47;;;;;;;3.77;3.17;;;10.90;99.90;;;;;;2081523;28;20247;-68
2023/04/29 03:32:48;;;;;;;5.57;3.33;;;11.00;99.90;;;;;;2077329;28;20541;-67
2023/04/29 03:33:52;;;;;;;5.43;3.63;;;11.00;99.90;;;;;;2078786;28;20237;-68
2023/04/29 03:34:54;;;;;;;4.32;3.55;;;10.90;99.90;;;;;;2092764;28;20234;-68
2023/04/29 03:35:54;;;;;;;3.38;2.50;;;10.90;99.90;;;;;;2096164;28;20737;-67
2023/04/29 03:36:56;;;;;;;4.53;3.83;;;10.90;99.90;;;;;;2087600;28;20224;-67
2023/04/29 03:37:57;;;;;;;5.78;3.58;;;10.90;99.90;;;;;;2088427;28;20285;-67
2023/04/29 03:38:57;;;;;;;3.73;3.00;;;10.80;99.90;;;;;;2088440;28;20769;-68
2023/04/29 03:39:58;;;;;;;4.00;3.10;;;10.70;99.90;;;;;;2087281;28;20255;-68
2023/04/29 03:41:00;;;;;;;4.53;3.63;;;10.70;99.90;;;;;;2096122;28;20246;-66
2023/04/29 03:42:01;;;;;;;3.58;3.13;;;10.60;99.90;;;;;;2095230;28;20223;-69
2023/04/29 03:43:03;;;;;;;5.50;3.20;;;10.70;99.90;;;;;;2092131;28;20223;-68
2023/04/29 03:44:04;;;;;;;5.15;3.47;;;10.70;99.90;;;;;;2095216;28;20199;-68
2023/04/29 03:45:07;;;;;;;4.90;3.50;;;10.70;99.90;;;;;;2096443;28;20191;-68
2023/04/29 03:46:07;;;;;;;6.20;3.45;;;10.70;99.90;;;;;;2088781;28;20565;-67
2023/04/29 03:47:08;;;;;;;5.43;3.87;;;10.70;99.90;;;;;;2088224;28;20188;-69
2023/04/29 03:48:09;;;;;;;5.67;3.80;;;10.70;99.90;;;;;;2095399;28;20579;-68
2023/04/29 03:49:11;;;;;;;6.17;3.83;;;10.70;99.90;;;;;;2091084;28;20219;-69
2023/04/29 03:50:11;;;;;;;7.70;3.97;;;10.80;99.90;;;;;;2076456;28;20189;-67
2023/04/29 03:51:13;;;;;;;3.37;3.00;;;10.80;99.90;;;;;;2080962;28;20225;-66
2023/04/29 03:52:14;;;;;;;6.75;4.00;;;10.80;99.90;;;;;;2090165;28;20651;-68
2023/04/29 03:53:17;;;;;;;3.15;2.83;;;10.70;99.90;;;;;;2079680;28;20958;-67
2023/04/29 03:54:18;;;;;;;4.82;3.63;;;10.70;99.90;;;;;;2087791;28;21067;-68
2023/04/29 03:55:18;;;;;;;10.07;3.90;;;10.70;99.90;;;;;;2082120;28;20200;-68
2023/04/29 03:56:19;;;;;;;5.97;4.13;;;10.70;99.90;;;;;;2087979;28;20848;-67
2023/04/29 03:57:23;;;;;;;7.67;4.07;;;10.70;99.90;;;;;;2082790;28;20189;-67
2023/04/29 03:58:24;;;;;;;4.95;3.90;;;10.60;99.90;;;;;;2083935;28;20227;-69
2023/04/29 03:59:25;;;;;;;4.47;3.40;;;10.60;99.90;;;;;;2091850;28;20247;-68
2023/04/29 04:00:29;;;;;;;6.60;3.67;;;10.60;99.90;;;;;;2095062;28;20262;-69
2023/04/29 04:01:30;;;;;;;3.47;3.10;;;10.60;99.90;;;;;;2089558;28;20602;-67
2023/04/29 04:02:31;;;;;;;4.30;3.50;;;10.50;99.90;;;;;;2090647;28;20256;-68
2023/04/29 04:03:31;;;;;;;6.27;3.63;;;10.50;99.90;;;;;;2079785;28;20290;-68
2023/04/29 04:04:32;;;;;;;8.00;4.10;;;10.60;99.90;;;;;;2063203;28;20226;-68
2023/04/29 04:05:36;;;;;;;5.10;3.00;;;10.60;99.90;;;;;;2079600;28;20786;-68
2023/04/29 04:06:38;;;;;;;5.72;3.70;;;10.60;99.90;;;;;;2088200;28;20318;-68
2023/04/29 04:07:38;;;;;;;4.30;3.90;;;10.60;99.90;;;;;;2087718;28;20277;-68
2023/04/29 04:08:40;;;;;;;4.83;3.73;;;10.60;99.90;;;;;;2087517;28;20277;-69
2023/04/29 04:09:41;;;;;;;5.50;3.75;;;10.60;99.90;;;;;;2079006;28;20229;-67
2023/04/29 04:10:41;;;;;;;5.53;3.90;;;10.60;99.90;;;;;;2081030;28;20259;-67
2023/04/29 04:11:44;;;;;;;4.73;3.87;;;10.70;99.90;;;;;;2092270;28;20220;-67
2023/04/29 04:12:46;;;;;;;4.78;3.78;;;10.70;99.90;;;;;;2081385;28;20220;-69
2023/04/29 04:13:48;;;;;;;5.60;3.90;;;10.70;99.90;;;;;;2087330;28;20236;-68
2023/04/29 04:14:49;;;;;;;4.20;3.70;;;10.70;99.90;;;;;;2091514;28;20239;-68
2023/04/29 04:15:51;;;;;;;4.80;4.00;;;10.70;99.90;;;;;;2096329;28;20233;-67
2023/04/29 04:16:52;;;;;;;6.25;3.80;;;10.80;99.90;;;;;;2088217;28;20277;-68
2023/04/29 04:17:54;;;;;;;7.70;3.77;;;10.70;99.90;;;;;;2091182;28;20285;-67
2023/04/29 04:18:55;;;;;;;6.38;4.13;;;10.70;99.90;;;;;;2083952;28;20227;-67
2023/04/29 04:19:56;;;;;;;4.82;4.10;;;10.70;99.90;;;;;;2079478;28;20228;-68
2023/04/29 04:20:56;;;;;;;5.03;3.83;;;10.80;99.90;;;;;;2091478;28;20224;-68
2023/04/29 04:21:58;;;;;;;4.07;3.50;;;10.60;99.90;;;;;;2093682;28;20230;-69
2023/04/29 04:22:58;;;;;;;4.03;3.50;;;10.50;99.90;;;;;;2095987;28;20591;-67
2023/04/29 04:23:59;;;;;;;4.70;4.05;;;10.60;99.90;;;;;;2093480;28;20231;-67
2023/04/29 04:25:00;;;;;;;4.77;3.23;;;10.50;99.90;;;;;;2091804;28;20223;-67
2023/04/29 04:26:03;;;;;;;3.83;3.40;;;10.50;99.90;;;;;;2086543;28;20311;-69
2023/04/29 04:27:04;;;;;;;4.78;3.72;;;10.50;99.90;;;;;;2074981;28;20192;-69
2023/04/29 04:28:06;;;;;;;4.93;3.87;;;10.40;99.90;;;;;;2083660;28;20230;-68
2023/04/29 04:29:07;;;;;;;4.95;3.83;;;10.40;99.90;;;;;;2091277;28;20299;-68
2023/04/29 04:30:08;;;;;;;6.88;3.92;;;10.30;99.90;;;;;;2091892;28;20192;-67
2023/04/29 04:31:09;;;;;;;6.03;3.95;;;10.20;99.90;;;;;;2092060;28;20290;-67
2023/04/29 04:32:09;;;;;;;5.00;4.20;;;10.10;99.90;;;;;;2088050;28;20191;-67
2023/04/29 04:33:11;;;;;;;7.03;3.87;;;10.20;99.90;;;;;;2090351;28;20185;-66
2023/04/29 04:34:12;;;;;;;4.15;3.50;;;10.30;99.90;;;;;;2092622;28;20180;-67
2023/04/29 04:35:13;;;;;;;4.07;3.37;;;10.30;99.90;;;;;;2088427;28;20196;-68
2023/04/29 04:36:14;;;;;;;4.15;3.45;;;10.30;99.90;;;;;;2083288;28;20196;-68
2023/04/29 04:37:15;;;;;;;5.67;4.20;;;10.30;99.90;;;;;;2091878;28;20188;-68
2023/04/29 04:38:16;;;;;;;6.33;3.80;;;10.30;99.90;;;;;;2096109;28;20636;-68
2023/04/29 04:39:17;;;;;;;5.15;4.00;;;10.40;99.90;;;;;;2092505;28;21032;-69
2023/04/29 04:40:18;;;;;;;5.97;4.17;;;10.30;99.90;;;;;;2092760;28;20173;-69
2023/04/29 04:41:19;;;;;;;4.18;3.50;;;10.30;99.90;;;;;;2082285;28;20351;-68
2023/04/29 04:42:21;;;;;;;4.33;3.23;;;10.40;99.90;;;;;;2071371;28;20189;-67
2023/04/29 04:43:22;;;;;;;4.78;3.65;;;10.40;99.90;;;;;;2082960;28;20285;-67
2023/04/29 04:44:23;;;;;;;4.88;3.28;;;10.40;99.90;;;;;;2079709;28;20235;-67
2023/04/29 04:45:24;;;;;;;4.20;3.47;;;10.30;99.90;;;;;;2087380;28;20258;-67
2023/04/29 04:46:24;;;;;;;5.47;3.83;;;10.30;99.90;;;;;;2090568;28;20233;-67
2023/04/29 04:47:25;;;;;;;3.97;3.57;;;10.30;99.90;;;;;;2089737;28;20319;-68
2023/04/29 04:48:26;;;;;;;5.57;3.80;;;10.30;99.90;;;;;;2091806;28;20646;-67
2023/04/29 04:49:27;;;;;;;4.60;3.37;;;10.30;99.90;;;;;;2084982;28;20243;-70
2023/04/29 04:50:28;;;;;;;6.03;4.07;;;10.40;99.90;;;;;;2092808;28;20255;-68
2023/04/29 04:51:29;;;;;;;5.68;3.28;;;10.50;99.90;;;;;;2084911;28;20228;-68
2023/04/29 04:52:30;;;;;;;5.13;3.13;;;10.50;99.90;;;;;;2079137;28;20221;-67
2023/04/29 04:53:31;;;;;;;5.90;2.90;;;10.60;99.90;;;;;;2076225;28;20241;-68
2023/04/29 04:54:32;;;;;;;5.97;3.60;;;10.60;99.90;;;;;;2081395;28;20316;-68
2023/04/29 04:55:36;;;;;;;4.17;2.83;;;10.70;99.90;;;;;;2089549;28;20231;-68
2023/04/29 04:56:38;;;;;;;3.42;2.97;;;10.80;99.90;;;;;;2089090;28;20231;-67
2023/04/29 04:57:39;;;;;;;5.10;2.90;;;10.90;99.90;;;;;;2094866;28;20250;-69
2023/04/29 04:58:40;;;;;;;4.03;2.85;;;10.90;99.90;;;;;;2092018;28;20271;-67
2023/04/29 04:59:42;;;;;;;3.10;2.80;;;10.90;99.90;;;;;;2095333;28;20698;-69
2023/04/29 05:00:44;;;;;;;3.00;2.40;;;10.90;99.90;;;;;;2091903;28;20232;-68
2023/04/29 05:01:45;;;;;;;2.63;2.42;;;10.90;99.90;;;;;;2094867;28;20223;-69
2023/04/29 05:02:47;;;;;;;3.17;2.83;;;10.90;99.90;;;;;;2091301;28;20380;-68
2023/04/29 05:03:48;;;;;;;3.42;2.78;;;11.00;99.90;;;;;;2091508;28;20228;-68
2023/04/29 05:04:49;;;;;;;4.50;2.73;;;11.10;99.90;;;;;;2089786;28;20240;-68
2023/04/29 05:05:59;;;;;;;4.57;2.93;;;11.20;99.90;;;;;;2091151;28;20229;-71
2023/04/29 05:07:00;;;;;;;3.88;3.47;;;11.40;99.90;;;;;;2092356;28;20720;-68
2023/04/29 05:08:01;;;;;;;4.13;2.63;;;11.40;99.90;;;;;;2094126;28;20223;-69
2023/04/29 05:09:02;;;;;;;5.17;2.67;;;11.50;99.90;;;;;;2091002;28;20191;-69
2023/04/29 05:10:03;;;;;;;3.08;2.72;;;11.60;99.90;;;;;;2091059;28;20183;-68
2023/04/29 05:11:04;;;;;;;3.30;2.90;;;11.60;99.90;;;;;;2080993;28;20185;-69
2023/04/29 05:12:05;;;;;;;3.58;3.10;;;11.70;99.90;;;;;;2089877;28;20195;-68
2023/04/29 05:13:07;;;;;;;3.87;3.47;;;11.70;99.90;;;;;;2091589;28;20561;-69
2023/04/29 05:14:08;;;;;;;4.45;3.60;;;11.70;99.90;;;;;;2089695;28;20187;-68
2023/04/29 05:15:10;;;;;;;3.73;3.27;;;11.80;99.90;;;;;;2091909;28;20210;-67
2023/04/29 05:16:11;;;;;;;4.18;3.75;;;11.80;99.90;;;;;;2091322;28;20188;-68
2023/04/29 05:17:13;;;;;;;7.57;4.10;;;11.90;99.90;;;;;;2091997;28;20574;-68
2023/04/29 05:18:14;;;;;;;4.97;4.10;;;11.80;99.90;;;;;;2092379;28;20219;-70
2023/04/29 05:19:14;;;;;;;6.30;4.03;;;11.80;99.90;;;;;;2091448;28;20212;-67
2023/04/29 05:20:15;;;;;;;7.75;4.68;;;11.80;99.90;;;;;;2090495;28;20180;-67
2023/04/29 05:21:17;;;;;;;19.77;18.40;;;11.80;99.90;;;;;;2092141;28;20605;-67
2023/04/29 05:22:18;;;;;;;7.70;7.10;;;11.80;99.90;;;;;;2091825;28;20265;-68
2023/04/29 05:23:19;;;;;;;4.47;4.00;;;11.80;99.90;;;;;;2092027;28;20195;-68
2023/04/29 05:24:20;;;;;;;15.13;14.13;;;11.80;99.90;;;;;;2082770;28;20189;-68
2023/04/29 05:25:21;;;;;;;8.20;7.47;;;11.80;99.90;;;;;;2077580;28;20232;-67
2023/04/29 05:26:23;;;;;;;5.10;4.50;;;11.80;99.90;;;;;;2075293;28;20236;-68
2023/04/29 05:27:25;;;;;;;5.70;4.75;;;11.70;99.90;;;;;;2090557;28;20300;-68
2023/04/29 05:28:25;;;;;;;7.30;4.70;;;11.70;99.90;;;;;;2092083;28;20231;-68